AerodromSadržaj METAR izveštaja
LYBEMETAR LYBE 211530Z 28017KT 9999 BKN033 12/09 Q1016 NOSIG=
LYBTMETAR LYBT 211530Z 24011KT 210V270 9999 -RA SCT020 BKN030 12/10 Q1015 NOSIG=
LYKVMETAR LYKV 211530Z 29005KT 240V350 9999 SCT030 BKN040 13/08 Q1017 NOSIG=
LYNIMETAR LYNI 211530Z 30012KT 260V330 9999 FEW017 BKN030 13/07 Q1016 NOSIG=
LYVRMETAR LYVR 211530Z 25010KT 220V280 7000 -RA BKN010 12/12 Q1014 NOSIG=
LYUZMETAR LYUZ 211530Z 28009KT 220V310 6000 -RA BKN017 07/06 Q1018=
LYPGMETAR LYPG 211530Z 34016KT 9999 FEW040 20/04 Q1015 NOSIG=
LYTVMETAR LYTV 211530Z 32008G18KT 9999 FEW060 21/04 Q1015 NOSIG=

Podaci učitani u: 2017-09-21 15:44:36 UTC

METAR, TAF, AIRMET, GAMET, SIGMET

Važna napomena: MET infоrmаciје nа оvim web strаnicаmа imајu infоrmаtivni kаrаktеr, nаmenjene su isključivo vаzduhоplоvnim kоrisnicima, nе smејu sе kоristiti zа bilо kоје kоmеrciјаlnе svrhе, i nе zаmеnjuјu dоkumеntаciјu zа lеt.